createdAt,value
2023-03-22T00:24:34.298Z,1.08
2023-03-22T00:25:34.303Z,1.16
2023-03-22T00:26:34.265Z,1.09
2023-03-22T00:27:34.223Z,1.15
2023-03-22T00:28:34.192Z,1.00
2023-03-22T00:29:34.194Z,0.96
2023-03-22T00:30:34.173Z,0.75
2023-03-22T00:31:34.210Z,1.03
2023-03-22T00:32:34.134Z,1.17
2023-03-22T00:33:34.184Z,0.77
2023-03-22T00:34:34.111Z,0.80
2023-03-22T00:35:34.127Z,0.95
2023-03-22T00:36:34.068Z,1.01
2023-03-22T00:37:34.045Z,0.75
2023-03-22T00:38:41.973Z,1.04
2023-03-22T00:40:33.996Z,1.13
2023-03-22T00:41:33.964Z,0.92
2023-03-22T00:42:33.943Z,1.16
2023-03-22T00:43:33.918Z,1.11
2023-03-22T00:44:33.902Z,0.78
2023-03-22T00:45:33.879Z,1.05
2023-03-22T00:46:33.900Z,0.89
2023-03-22T00:47:33.849Z,1.29
2023-03-22T00:48:33.823Z,0.92
2023-03-22T00:49:33.825Z,0.86
2023-03-22T00:50:33.788Z,1.13
2023-03-22T00:51:33.763Z,0.87
2023-03-22T00:52:33.749Z,1.01
2023-03-22T00:53:33.718Z,0.76
2023-03-22T00:54:33.695Z,0.53
2023-03-22T00:55:33.693Z,0.92
2023-03-22T00:56:33.661Z,0.96
2023-03-22T00:57:33.645Z,1.09
2023-03-22T00:58:33.633Z,0.91
2023-03-22T00:59:33.598Z,0.83
2023-03-22T01:00:33.576Z,0.96
2023-03-22T01:01:33.612Z,1.02
2023-03-22T01:02:33.566Z,1.19
2023-03-22T01:03:33.594Z,1.15
2023-03-22T01:04:33.507Z,1.09
2023-03-22T01:05:33.533Z,0.67
2023-03-22T01:06:33.466Z,0.85
2023-03-22T01:07:33.451Z,0.81
2023-03-22T01:08:33.720Z,1.10
2023-03-22T01:09:33.397Z,1.07
2023-03-22T01:10:33.384Z,0.95
2023-03-22T01:11:33.353Z,0.96
2023-03-22T01:12:33.341Z,1.05
2023-03-22T01:13:33.315Z,1.17
2023-03-22T01:14:33.280Z,0.72
2023-03-22T01:15:33.263Z,1.27
2023-03-22T01:16:33.277Z,0.73
2023-03-22T01:17:33.245Z,0.94
2023-03-22T01:18:33.206Z,0.90
2023-03-22T01:19:33.190Z,1.05
2023-03-22T01:20:33.183Z,0.89
2023-03-22T01:21:33.154Z,0.89
2023-03-22T01:22:33.125Z,0.83
2023-03-22T01:23:33.113Z,1.07
2023-03-22T01:24:33.102Z,0.85
2023-03-22T01:25:33.083Z,0.82
2023-03-22T01:26:33.040Z,0.90
2023-03-22T01:27:33.027Z,1.20
2023-03-22T01:28:33.023Z,1.02
2023-03-22T01:29:32.993Z,1.01
2023-03-22T01:30:33.052Z,1.12
2023-03-22T01:31:32.944Z,1.18
2023-03-22T01:32:33.072Z,1.02
2023-03-22T01:33:32.924Z,1.05
2023-03-22T01:34:32.882Z,0.89
2023-03-22T01:35:32.888Z,0.95
2023-03-22T01:36:32.878Z,0.97
2023-03-22T01:37:32.838Z,0.85
2023-03-22T01:38:32.822Z,0.74
2023-03-22T01:39:32.786Z,0.96
2023-03-22T01:40:32.775Z,1.07
2023-03-22T01:41:32.745Z,0.70
2023-03-22T01:42:32.751Z,1.03
2023-03-22T01:43:32.698Z,0.95
2023-03-22T01:44:32.684Z,1.07
2023-03-22T01:45:32.663Z,1.04
2023-03-22T01:46:32.699Z,1.02
2023-03-22T01:47:32.629Z,1.16
2023-03-22T01:48:32.604Z,0.84
2023-03-22T01:49:32.583Z,0.94
2023-03-22T01:50:32.558Z,0.86
2023-03-22T01:51:32.541Z,1.08
2023-03-22T01:52:32.506Z,1.13
2023-03-22T01:53:32.489Z,0.80
2023-03-22T01:54:32.458Z,1.16
2023-03-22T01:55:32.461Z,1.06
2023-03-22T01:56:32.422Z,0.97
2023-03-22T01:57:32.400Z,0.89
2023-03-22T01:58:32.397Z,0.78
2023-03-22T01:59:32.380Z,0.96
2023-03-22T02:00:32.353Z,0.96
2023-03-22T02:01:32.360Z,1.06
2023-03-22T02:02:32.321Z,1.27
2023-03-22T02:03:32.304Z,0.97
2023-03-22T02:04:32.284Z,0.89
2023-03-22T02:05:32.247Z,1.49
2023-03-22T02:06:32.224Z,1.00
2023-03-22T02:07:32.225Z,1.04
2023-03-22T02:08:32.208Z,1.23
2023-03-22T02:09:32.178Z,1.02
2023-03-22T02:10:32.180Z,1.00
2023-03-22T02:11:32.152Z,0.95
2023-03-22T02:12:32.127Z,0.97
2023-03-22T02:14:32.103Z,0.88
2023-03-22T02:15:32.156Z,0.86
2023-03-22T02:16:32.049Z,0.94
2023-03-22T02:17:32.044Z,0.98
2023-03-22T02:18:32.031Z,1.14
2023-03-22T02:19:31.996Z,0.84
2023-03-22T02:20:31.958Z,0.96
2023-03-22T02:21:31.951Z,1.05
2023-03-22T02:22:31.922Z,0.91
2023-03-22T02:23:31.893Z,0.84
2023-03-22T02:24:31.862Z,0.97
2023-03-22T02:25:31.838Z,0.68
2023-03-22T02:26:31.815Z,0.80
2023-03-22T02:27:31.808Z,0.73
2023-03-22T02:28:31.884Z,1.07
2023-03-22T02:29:31.746Z,1.04
2023-03-22T02:30:31.726Z,0.80
2023-03-22T02:31:31.749Z,0.98
2023-03-22T02:32:31.677Z,0.97
2023-03-22T02:33:31.667Z,0.95
2023-03-22T02:34:31.635Z,0.77
2023-03-22T02:35:31.643Z,0.93
2023-03-22T02:36:31.607Z,0.96
2023-03-22T02:37:31.557Z,1.03
2023-03-22T02:38:31.550Z,1.01
2023-03-22T02:39:31.553Z,0.99
2023-03-22T02:40:31.493Z,0.93
2023-03-22T02:41:31.488Z,0.98
2023-03-22T02:42:31.458Z,0.96
2023-03-22T02:43:31.453Z,1.00
2023-03-22T02:44:31.493Z,1.01
2023-03-22T02:45:31.449Z,1.17
2023-03-22T02:46:31.429Z,1.13
2023-03-22T02:47:31.371Z,0.78
2023-03-22T02:48:31.392Z,0.88
2023-03-22T02:49:31.337Z,1.00
2023-03-22T02:50:31.332Z,1.24
2023-03-22T02:51:31.304Z,0.87
2023-03-22T02:52:31.294Z,0.88
2023-03-22T02:53:31.267Z,0.92
2023-03-22T02:54:31.255Z,1.06
2023-03-22T02:55:31.232Z,0.72
2023-03-22T02:56:31.203Z,0.75
2023-03-22T02:57:31.180Z,1.67
2023-03-22T02:58:31.176Z,1.29
2023-03-22T02:59:31.163Z,0.69
2023-03-22T03:00:31.167Z,0.99
2023-03-22T03:01:31.116Z,0.65
2023-03-22T03:02:31.098Z,0.87
2023-03-22T03:03:31.078Z,0.84
2023-03-22T03:04:31.080Z,0.96
2023-03-22T03:05:31.054Z,0.80
2023-03-22T03:06:31.044Z,1.01
2023-03-22T03:07:31.010Z,0.89
2023-03-22T03:08:30.995Z,0.95
2023-03-22T03:09:31.017Z,1.08
2023-03-22T03:10:30.952Z,0.89
2023-03-22T03:11:32.359Z,1.15
2023-03-22T03:12:30.924Z,1.04
2023-03-22T03:13:30.909Z,0.94
2023-03-22T03:14:30.900Z,0.94
2023-03-22T03:15:30.884Z,0.90
2023-03-22T03:16:30.944Z,1.02
2023-03-22T03:17:30.866Z,0.93
2023-03-22T03:18:30.837Z,0.83
2023-03-22T03:19:30.825Z,0.69
2023-03-22T03:20:30.809Z,0.83
2023-03-22T03:21:30.818Z,0.96
2023-03-22T03:22:30.778Z,0.53
2023-03-22T03:23:30.758Z,1.04
2023-03-22T03:24:30.774Z,0.66
2023-03-22T03:25:30.751Z,0.74
2023-03-22T03:26:30.772Z,0.82
2023-03-22T03:27:30.716Z,0.84
2023-03-22T03:28:30.709Z,0.46
2023-03-22T03:29:30.707Z,0.92
2023-03-22T03:30:30.729Z,0.87
2023-03-22T03:31:30.696Z,0.67
2023-03-22T03:32:30.656Z,0.94
2023-03-22T03:33:30.661Z,0.87
2023-03-22T03:34:30.652Z,0.99
2023-03-22T03:35:30.657Z,0.98
2023-03-22T03:36:30.623Z,0.59
2023-03-22T03:37:30.616Z,0.76
2023-03-22T03:38:30.589Z,1.39
2023-03-22T03:39:30.588Z,0.88
2023-03-22T03:40:30.584Z,0.67
2023-03-22T03:41:30.567Z,0.92
2023-03-22T03:42:30.574Z,0.64
2023-03-22T03:43:30.544Z,0.70
2023-03-22T03:44:30.538Z,0.99
2023-03-22T03:45:30.565Z,0.70
2023-03-22T03:46:30.542Z,0.59
2023-03-22T03:47:30.514Z,0.79
2023-03-22T03:48:30.512Z,0.63
2023-03-22T03:49:30.498Z,0.84
2023-03-22T03:50:30.490Z,0.61
2023-03-22T03:51:30.489Z,0.95
2023-03-22T03:52:30.476Z,0.77
2023-03-22T03:53:30.453Z,0.76
2023-03-22T03:54:30.460Z,0.69
2023-03-22T03:55:30.454Z,1.18
2023-03-22T03:56:30.447Z,0.71
2023-03-22T03:57:30.458Z,0.94
2023-03-22T03:58:30.465Z,1.07
2023-03-22T03:59:30.423Z,1.09
2023-03-22T04:00:30.401Z,0.60
2023-03-22T04:01:30.396Z,0.74
2023-03-22T04:02:30.423Z,0.79
2023-03-22T04:03:30.374Z,0.76
2023-03-22T04:04:30.417Z,0.57
2023-03-22T04:05:30.361Z,0.79
2023-03-22T04:06:30.340Z,0.58
2023-03-22T04:07:30.335Z,0.80
2023-03-22T04:08:30.335Z,0.49
2023-03-22T04:09:30.307Z,0.91
2023-03-22T04:10:30.313Z,0.79
2023-03-22T04:11:30.299Z,0.62
2023-03-22T04:12:30.286Z,0.68
2023-03-22T04:13:30.267Z,0.81
2023-03-22T04:14:30.265Z,0.80
2023-03-22T04:15:30.252Z,0.89
2023-03-22T04:16:30.269Z,1.06
2023-03-22T04:17:30.242Z,0.76
2023-03-22T04:18:30.236Z,0.78
2023-03-22T04:19:30.222Z,1.27
2023-03-22T04:20:30.248Z,0.71
2023-03-22T04:21:30.217Z,1.11
2023-03-22T04:22:30.221Z,0.91
2023-03-22T04:23:30.210Z,1.15
2023-03-22T04:24:30.212Z,1.12
2023-03-22T04:25:30.299Z,0.96
2023-03-22T04:26:30.200Z,0.97
2023-03-22T04:27:30.195Z,1.13
2023-03-22T04:28:30.189Z,0.87
2023-03-22T04:29:30.174Z,0.90
2023-03-22T04:30:30.176Z,1.00
2023-03-22T04:31:30.214Z,0.92
2023-03-22T04:32:30.161Z,1.05
2023-03-22T04:33:30.146Z,1.29
2023-03-22T04:34:30.141Z,1.56
2023-03-22T04:35:30.177Z,1.34
2023-03-22T04:36:30.139Z,1.14
2023-03-22T04:37:30.130Z,1.10
2023-03-22T04:38:30.129Z,0.98
2023-03-22T04:39:30.121Z,1.14
2023-03-22T04:40:30.123Z,1.17
2023-03-22T04:41:30.376Z,0.99
2023-03-22T04:42:30.107Z,0.96
2023-03-22T04:43:30.086Z,1.09
2023-03-22T04:44:30.095Z,0.92
2023-03-22T04:45:30.073Z,1.34
2023-03-22T04:46:30.150Z,1.05
2023-03-22T04:47:30.071Z,0.96
2023-03-22T04:48:30.059Z,1.19
2023-03-22T04:49:30.064Z,1.18
2023-03-22T04:50:30.038Z,0.97
2023-03-22T04:51:30.045Z,0.86
2023-03-22T04:52:30.039Z,1.24
2023-03-22T04:53:30.018Z,0.64
2023-03-22T04:54:30.043Z,1.12
2023-03-22T04:55:30.011Z,1.17
2023-03-22T04:56:30.009Z,0.81
2023-03-22T04:57:29.994Z,1.00
2023-03-22T04:58:30.001Z,1.21
2023-03-22T04:59:29.996Z,1.09
2023-03-22T05:00:29.989Z,0.80
2023-03-22T05:01:30.051Z,1.05
2023-03-22T05:02:29.997Z,1.08
2023-03-22T05:03:29.984Z,0.75
2023-03-22T05:04:29.956Z,1.03
2023-03-22T05:05:29.968Z,1.23
2023-03-22T05:06:29.961Z,0.76
2023-03-22T05:07:29.946Z,1.15
2023-03-22T05:08:29.932Z,1.11
2023-03-22T05:09:29.925Z,0.99
2023-03-22T05:10:29.934Z,0.91
2023-03-22T05:11:29.928Z,1.06
2023-03-22T05:12:29.933Z,0.79
2023-03-22T05:13:29.918Z,1.00
2023-03-22T05:14:29.946Z,0.94
2023-03-22T05:15:29.945Z,0.95
2023-03-22T05:16:29.949Z,1.01
2023-03-22T05:17:29.906Z,0.95
2023-03-22T05:18:29.905Z,0.83
2023-03-22T05:19:29.910Z,0.83
2023-03-22T05:20:29.912Z,1.13
2023-03-22T05:21:29.911Z,0.96
2023-03-22T05:22:29.912Z,0.92
2023-03-22T05:23:29.887Z,0.99
2023-03-22T05:24:29.890Z,0.87
2023-03-22T05:25:29.886Z,1.03
2023-03-22T05:26:29.888Z,0.89
2023-03-22T05:27:29.874Z,0.89
2023-03-22T05:28:29.878Z,1.06
2023-03-22T05:29:29.863Z,0.93
2023-03-22T05:30:29.880Z,1.08
2023-03-22T05:31:29.910Z,0.76
2023-03-22T05:32:29.878Z,1.28
2023-03-22T05:33:29.849Z,0.98
2023-03-22T05:34:29.853Z,0.89
2023-03-22T05:35:29.929Z,1.01
2023-03-22T05:36:29.851Z,0.97
2023-03-22T05:37:29.860Z,0.59
2023-03-22T05:38:29.844Z,1.12
2023-03-22T05:39:29.838Z,1.53
2023-03-22T05:40:29.842Z,1.30
2023-03-22T05:41:29.834Z,1.31
2023-03-22T05:42:29.849Z,1.88
2023-03-22T05:43:29.823Z,1.44
2023-03-22T05:44:29.831Z,1.82
2023-03-22T05:45:29.832Z,1.48
2023-03-22T05:46:29.889Z,1.71
2023-03-22T05:47:29.833Z,1.44
2023-03-22T05:48:29.821Z,1.51
2023-03-22T05:49:29.821Z,1.55
2023-03-22T05:50:29.818Z,1.87
2023-03-22T05:51:29.832Z,2.16
2023-03-22T05:52:29.831Z,1.73
2023-03-22T05:53:29.826Z,1.96
2023-03-22T05:54:29.828Z,2.02
2023-03-22T05:55:29.824Z,1.98
2023-03-22T05:56:29.814Z,1.82
2023-03-22T05:57:29.867Z,1.63
2023-03-22T05:58:29.824Z,1.78
2023-03-22T05:59:29.824Z,2.00
2023-03-22T06:00:29.816Z,2.12
2023-03-22T06:01:29.819Z,1.89
2023-03-22T06:02:29.808Z,1.99
2023-03-22T06:03:29.906Z,1.91
2023-03-22T06:04:29.802Z,2.40
2023-03-22T06:05:29.811Z,2.65
2023-03-22T06:06:29.785Z,2.75
2023-03-22T06:07:29.799Z,2.06
2023-03-22T06:08:29.783Z,2.72
2023-03-22T06:09:29.791Z,3.05
2023-03-22T06:10:29.766Z,2.55
2023-03-22T06:11:29.757Z,2.87
2023-03-22T06:12:30.309Z,2.13
2023-03-22T06:13:29.832Z,2.62
2023-03-22T06:14:29.764Z,2.95
2023-03-22T06:15:29.764Z,2.62
2023-03-22T06:16:29.805Z,2.45
2023-03-22T06:17:29.739Z,2.27
2023-03-22T06:18:29.730Z,2.68
2023-03-22T06:19:29.734Z,2.29
2023-03-22T06:20:29.719Z,2.84
2023-03-22T06:21:29.707Z,3.31
2023-03-22T06:22:29.692Z,4.44
2023-03-22T06:23:29.701Z,3.75
2023-03-22T06:24:29.686Z,4.59
2023-03-22T06:25:29.655Z,4.56
2023-03-22T06:26:29.669Z,4.79
2023-03-22T06:27:29.652Z,4.07
2023-03-22T06:28:29.695Z,4.52
2023-03-22T06:29:29.687Z,4.58
2023-03-22T06:30:29.709Z,4.91
2023-03-22T06:31:29.619Z,4.44
2023-03-22T06:32:29.615Z,4.62
2023-03-22T06:33:29.628Z,4.78
2023-03-22T06:34:29.630Z,4.45
2023-03-22T06:35:29.635Z,4.96
2023-03-22T06:36:29.579Z,5.21
2023-03-22T06:37:29.585Z,4.58
2023-03-22T06:38:29.559Z,5.17
2023-03-22T06:39:29.590Z,5.34
2023-03-22T06:40:29.552Z,4.43
2023-03-22T06:41:29.550Z,4.65
2023-03-22T06:42:29.585Z,4.75
2023-03-22T06:43:29.563Z,4.73
2023-03-22T06:44:29.561Z,4.25
2023-03-22T06:45:29.532Z,4.78
2023-03-22T06:46:29.665Z,4.53
2023-03-22T06:47:29.537Z,4.47
2023-03-22T06:48:29.602Z,5.79
2023-03-22T06:49:29.579Z,6.10
2023-03-22T06:50:29.503Z,4.59
2023-03-22T06:51:29.536Z,3.58
2023-03-22T06:52:29.496Z,3.77
2023-03-22T06:53:29.513Z,3.74
2023-03-22T06:54:29.498Z,3.33
2023-03-22T06:55:29.482Z,3.77
2023-03-22T06:56:29.476Z,2.49
2023-03-22T06:57:29.507Z,2.52
2023-03-22T06:58:29.493Z,3.00
2023-03-22T06:59:29.441Z,2.82
2023-03-22T07:00:29.453Z,2.57
2023-03-22T07:01:29.531Z,2.47
2023-03-22T07:02:29.442Z,2.06
2023-03-22T07:03:29.462Z,2.28
2023-03-22T07:04:29.581Z,2.43
2023-03-22T07:05:29.432Z,2.18
2023-03-22T07:06:29.431Z,1.83
2023-03-22T07:07:29.437Z,2.30
2023-03-22T07:08:29.459Z,2.59
2023-03-22T07:09:29.452Z,2.23
2023-03-22T07:10:29.450Z,2.29
2023-03-22T07:11:29.459Z,2.00
2023-03-22T07:12:29.445Z,2.45
2023-03-22T07:13:29.679Z,2.58
2023-03-22T07:14:30.316Z,3.20
2023-03-22T07:15:29.451Z,2.21
2023-03-22T07:16:29.491Z,2.79
2023-03-22T07:17:29.447Z,2.66
2023-03-22T07:18:29.458Z,3.81
2023-03-22T07:19:29.465Z,2.78
2023-03-22T07:20:29.476Z,3.29
2023-03-22T07:21:29.449Z,3.16
2023-03-22T07:22:29.452Z,3.72
2023-03-22T07:23:29.525Z,4.21
2023-03-22T07:24:29.438Z,3.12
2023-03-22T07:25:29.460Z,4.86
2023-03-22T07:26:29.453Z,4.56
2023-03-22T07:27:29.467Z,4.58
2023-03-22T07:28:29.463Z,4.39
2023-03-22T07:29:29.500Z,4.99
2023-03-22T07:30:29.471Z,4.76
2023-03-22T07:31:29.472Z,3.55
2023-03-22T07:32:29.646Z,4.52
2023-03-22T07:33:29.477Z,3.85
2023-03-22T07:34:29.505Z,4.01
2023-03-22T07:35:29.547Z,3.68
2023-03-22T07:36:29.478Z,3.71
2023-03-22T07:37:29.459Z,4.15
2023-03-22T07:38:29.466Z,3.86
2023-03-22T07:39:29.466Z,3.70
2023-03-22T07:40:29.516Z,3.73
2023-03-22T07:41:29.464Z,3.18
2023-03-22T07:42:29.464Z,3.30
2023-03-22T07:43:29.474Z,3.70
2023-03-22T07:44:29.474Z,3.09
2023-03-22T07:45:29.521Z,3.57
2023-03-22T07:46:29.543Z,3.27
2023-03-22T07:47:40.441Z,3.28
2023-03-22T07:48:30.587Z,3.22
2023-03-22T07:49:29.467Z,3.45
2023-03-22T07:50:29.512Z,3.33
2023-03-22T07:51:29.464Z,3.49
2023-03-22T07:52:29.415Z,2.54
2023-03-22T07:53:29.416Z,2.28
2023-03-22T07:54:33.827Z,3.34
2023-03-22T07:55:29.415Z,3.03
2023-03-22T07:56:29.392Z,2.86
2023-03-22T07:57:29.393Z,2.28
2023-03-22T07:58:29.384Z,2.70
2023-03-22T07:59:29.502Z,2.77
2023-03-22T08:00:29.457Z,2.83
2023-03-22T08:01:29.361Z,1.92
2023-03-22T08:02:29.396Z,2.18
2023-03-22T08:03:29.382Z,2.63
2023-03-22T08:04:29.336Z,1.85
2023-03-22T08:05:29.345Z,2.59
2023-03-22T08:06:29.329Z,1.97
2023-03-22T08:07:29.340Z,1.55
2023-03-22T08:08:29.311Z,2.31
2023-03-22T08:09:29.313Z,2.15
2023-03-22T08:10:29.312Z,1.82
2023-03-22T08:11:29.313Z,1.43
2023-03-22T08:12:29.327Z,1.78
2023-03-22T08:13:29.308Z,2.25
2023-03-22T08:14:36.321Z,1.67
2023-03-22T08:15:30.309Z,1.59
2023-03-22T08:16:29.314Z,1.72
2023-03-22T08:17:29.253Z,1.73
2023-03-22T08:18:29.256Z,1.84
2023-03-22T08:19:29.279Z,1.43
2023-03-22T08:20:29.219Z,1.52
2023-03-22T08:21:29.219Z,1.52
2023-03-22T08:22:29.196Z,1.58
2023-03-22T08:23:40.815Z,1.70
2023-03-22T08:24:30.194Z,1.50
2023-03-22T08:25:29.168Z,1.70
2023-03-22T08:26:29.159Z,0.91
2023-03-22T08:27:29.136Z,1.76
2023-03-22T08:28:29.147Z,1.17
2023-03-22T08:29:29.148Z,1.17
2023-03-22T08:30:29.106Z,1.08
2023-03-22T08:31:29.154Z,0.92
2023-03-22T08:32:29.071Z,1.22
2023-03-22T08:33:29.070Z,1.24
2023-03-22T08:34:29.860Z,1.12
2023-03-22T08:35:29.052Z,1.24
2023-03-22T08:36:29.024Z,1.61
2023-03-22T08:37:29.015Z,1.86
2023-03-22T08:38:28.990Z,1.25
2023-03-22T08:39:28.996Z,2.10
2023-03-22T08:40:29.000Z,1.79
2023-03-22T08:41:28.953Z,1.43
2023-03-22T08:42:28.933Z,1.96
2023-03-22T08:43:28.918Z,1.91
2023-03-22T08:44:28.945Z,2.05
2023-03-22T08:45:28.887Z,2.98
2023-03-22T08:46:28.975Z,1.36
2023-03-22T08:47:28.860Z,2.05
2023-03-22T08:48:28.826Z,1.51
2023-03-22T08:49:28.806Z,1.36
2023-03-22T08:50:28.794Z,1.65
2023-03-22T08:51:28.795Z,1.50
2023-03-22T08:52:28.774Z,1.99
2023-03-22T08:53:28.834Z,1.66
2023-03-22T08:54:28.725Z,2.06
2023-03-22T08:55:28.758Z,1.57
2023-03-22T08:56:28.691Z,1.61
2023-03-22T08:57:28.680Z,1.41
2023-03-22T08:58:28.684Z,1.34
2023-03-22T08:59:28.663Z,1.42
2023-03-22T09:00:39.083Z,1.62
2023-03-22T09:01:29.805Z,1.66
2023-03-22T09:02:28.659Z,1.95
2023-03-22T09:03:28.624Z,1.49
2023-03-22T09:04:28.587Z,1.84
2023-03-22T09:05:28.604Z,1.85
2023-03-22T09:06:28.581Z,1.49
2023-03-22T09:07:28.552Z,1.44
2023-03-22T09:08:28.550Z,1.86
2023-03-22T09:09:28.528Z,1.50
2023-03-22T09:10:28.521Z,1.61
2023-03-22T09:11:28.506Z,1.62
2023-03-22T09:12:28.489Z,1.54
2023-03-22T09:13:28.482Z,1.61
2023-03-22T09:14:28.456Z,2.30
2023-03-22T09:15:28.478Z,2.20
2023-03-22T09:16:28.480Z,1.54
2023-03-22T09:17:28.395Z,1.85
2023-03-22T09:18:28.378Z,1.48
2023-03-22T09:19:28.400Z,1.61
2023-03-22T09:20:28.372Z,2.00
2023-03-22T09:21:28.339Z,1.49
2023-03-22T09:22:28.330Z,1.32
2023-03-22T09:23:28.324Z,1.59
2023-03-22T09:24:28.306Z,1.81
2023-03-22T09:25:28.300Z,2.56
2023-03-22T09:26:28.268Z,1.75
2023-03-22T09:27:28.251Z,2.24
2023-03-22T09:28:28.269Z,1.48
2023-03-22T09:29:28.221Z,1.78
2023-03-22T09:30:28.211Z,1.97
2023-03-22T09:31:28.241Z,1.64
2023-03-22T09:32:28.179Z,1.74
2023-03-22T09:33:28.168Z,1.40
2023-03-22T09:34:28.148Z,1.62
2023-03-22T09:35:28.148Z,1.81
2023-03-22T09:36:28.108Z,1.68
2023-03-22T09:37:28.086Z,1.61
2023-03-22T09:38:28.077Z,2.34
2023-03-22T09:39:28.053Z,2.24
2023-03-22T09:40:28.040Z,2.40
2023-03-22T09:41:28.053Z,2.68
2023-03-22T09:42:28.001Z,2.75
2023-03-22T09:43:27.993Z,2.80
2023-03-22T09:44:28.000Z,3.12
2023-03-22T09:45:27.991Z,3.31
2023-03-22T09:46:28.027Z,3.31
2023-03-22T09:47:33.192Z,4.11
2023-03-22T09:48:29.021Z,3.21
2023-03-22T09:49:27.966Z,3.25
2023-03-22T09:50:27.944Z,3.77
2023-03-22T09:51:27.944Z,3.78
2023-03-22T09:52:28.015Z,3.43
2023-03-22T09:53:27.955Z,3.20
2023-03-22T09:54:27.938Z,2.86
2023-03-22T09:55:27.946Z,2.61
2023-03-22T09:56:27.970Z,2.92
2023-03-22T09:57:27.934Z,2.43
2023-03-22T09:58:27.943Z,2.61
2023-03-22T09:59:27.977Z,3.11
2023-03-22T10:00:28.036Z,2.90
2023-03-22T10:01:28.143Z,2.01
2023-03-22T10:02:28.006Z,2.81
2023-03-22T10:03:27.930Z,3.50
2023-03-22T10:04:28.048Z,3.07
2023-03-22T10:05:27.928Z,2.66
2023-03-22T10:06:29.437Z,2.60
2023-03-22T10:07:27.927Z,2.85
2023-03-22T10:08:27.898Z,2.45
2023-03-22T10:09:27.880Z,2.73
2023-03-22T10:10:27.930Z,2.35
2023-03-22T10:11:27.873Z,2.48
2023-03-22T10:12:27.911Z,2.96
2023-03-22T10:13:27.866Z,2.49
2023-03-22T10:14:27.848Z,2.96
2023-03-22T10:15:27.844Z,2.40
2023-03-22T10:16:27.869Z,2.72
2023-03-22T10:17:27.817Z,2.35
2023-03-22T10:18:27.814Z,2.62
2023-03-22T10:19:27.887Z,2.73
2023-03-22T10:20:27.821Z,2.66
2023-03-22T10:21:27.810Z,2.52
2023-03-22T10:22:27.785Z,2.43
2023-03-22T10:23:27.793Z,2.41
2023-03-22T10:24:27.777Z,2.34
2023-03-22T10:25:27.760Z,2.46
2023-03-22T10:26:27.758Z,2.26
2023-03-22T10:27:27.739Z,2.75
2023-03-22T10:28:27.729Z,2.45
2023-03-22T10:29:27.725Z,2.48
2023-03-22T10:30:27.739Z,1.89
2023-03-22T10:31:27.717Z,2.38
2023-03-22T10:32:27.669Z,2.56
2023-03-22T10:33:27.661Z,2.13
2023-03-22T10:34:27.645Z,2.22
2023-03-22T10:35:27.629Z,2.01
2023-03-22T10:36:27.586Z,2.34
2023-03-22T10:37:27.563Z,1.96
2023-03-22T10:38:27.547Z,2.05
2023-03-22T10:39:27.541Z,2.03
2023-03-22T10:40:27.534Z,1.60
2023-03-22T10:41:27.503Z,2.18
2023-03-22T10:42:27.485Z,1.89
2023-03-22T10:43:27.452Z,2.57
2023-03-22T10:44:27.453Z,2.58
2023-03-22T10:45:27.450Z,2.03
2023-03-22T10:46:27.462Z,2.07
2023-03-22T10:47:27.401Z,2.06
2023-03-22T10:48:27.465Z,2.19
2023-03-22T10:49:27.405Z,2.39
2023-03-22T10:50:27.341Z,2.27
2023-03-22T10:51:27.327Z,2.19
2023-03-22T10:52:27.320Z,2.11
2023-03-22T10:53:27.267Z,1.70
2023-03-22T10:54:27.262Z,2.52
2023-03-22T10:55:27.274Z,2.48
2023-03-22T10:56:27.211Z,2.10
2023-03-22T10:57:27.201Z,2.13
2023-03-22T10:58:27.190Z,2.24
2023-03-22T10:59:27.214Z,2.53
2023-03-22T11:00:27.187Z,2.62
2023-03-22T11:01:27.226Z,2.15
2023-03-22T11:02:27.264Z,2.22
2023-03-22T11:03:27.088Z,2.53
2023-03-22T11:04:27.079Z,2.00
2023-03-22T11:05:27.082Z,2.44
2023-03-22T11:06:27.034Z,2.14
2023-03-22T11:07:26.995Z,2.08
2023-03-22T11:08:26.966Z,2.44
2023-03-22T11:09:26.960Z,2.57
2023-03-22T11:10:26.981Z,2.74
2023-03-22T11:11:26.906Z,1.91
2023-03-22T11:12:26.892Z,2.81
2023-03-22T11:13:26.866Z,3.25
2023-03-22T11:14:26.863Z,2.43
2023-03-22T11:15:26.821Z,2.02
2023-03-22T11:16:26.833Z,2.27
2023-03-22T11:17:26.790Z,2.51
2023-03-22T11:18:26.763Z,2.23
2023-03-22T11:19:26.779Z,3.09
2023-03-22T11:20:28.170Z,3.15
2023-03-22T11:21:26.721Z,2.00
2023-03-22T11:22:26.728Z,2.79
2023-03-22T11:23:26.667Z,3.25
2023-03-22T11:24:26.660Z,3.07
2023-03-22T11:25:26.634Z,2.47
2023-03-22T11:26:26.622Z,2.31
2023-03-22T11:27:26.624Z,2.46
2023-03-22T11:28:26.619Z,2.99
2023-03-22T11:29:26.665Z,2.48
2023-03-22T11:30:26.710Z,2.65
2023-03-22T11:31:26.795Z,2.50
2023-03-22T11:32:26.897Z,2.95
2023-03-22T11:33:26.818Z,2.92
2023-03-22T11:34:26.809Z,2.05
2023-03-22T11:35:26.826Z,2.49
2023-03-22T11:36:26.775Z,2.06
2023-03-22T11:37:26.787Z,2.77
2023-03-22T11:38:26.757Z,2.34
2023-03-22T11:39:26.752Z,2.11
2023-03-22T11:40:26.725Z,2.45
2023-03-22T11:41:26.681Z,2.73
2023-03-22T11:42:26.674Z,2.66
2023-03-22T11:43:26.631Z,2.38
2023-03-22T11:44:26.637Z,2.59
2023-03-22T11:45:26.605Z,2.32
2023-03-22T11:46:26.664Z,2.44
2023-03-22T11:47:26.614Z,2.59
2023-03-22T11:48:26.642Z,2.32
2023-03-22T11:49:26.565Z,2.77
2023-03-22T11:50:26.544Z,2.50
2023-03-22T11:51:26.569Z,2.11
2023-03-22T11:52:26.533Z,2.45
2023-03-22T11:53:26.527Z,2.03
2023-03-22T11:54:26.495Z,2.29
2023-03-22T11:55:26.476Z,2.54
2023-03-22T11:56:26.494Z,2.36
2023-03-22T11:57:26.443Z,2.02
2023-03-22T11:58:26.453Z,2.42
2023-03-22T11:59:26.455Z,2.39
2023-03-22T12:00:26.406Z,2.10
2023-03-22T12:01:26.379Z,2.02
2023-03-22T12:02:26.494Z,2.49
2023-03-22T12:03:26.440Z,2.30
2023-03-22T12:04:26.385Z,2.71
2023-03-22T12:05:26.348Z,2.58
2023-03-22T12:06:26.339Z,2.28
2023-03-22T12:07:26.291Z,3.31
2023-03-22T12:08:26.290Z,2.65
2023-03-22T12:09:26.257Z,2.84
2023-03-22T12:10:26.242Z,3.46
2023-03-22T12:11:26.229Z,2.60
2023-03-22T12:12:26.232Z,3.15
2023-03-22T12:13:26.174Z,3.27
2023-03-22T12:14:26.155Z,2.90
2023-03-22T12:15:26.156Z,3.18
2023-03-22T12:16:26.176Z,3.26
2023-03-22T12:17:26.177Z,2.73
2023-03-22T12:18:26.118Z,3.00
2023-03-22T12:19:26.086Z,2.69
2023-03-22T12:20:26.070Z,2.74
2023-03-22T12:21:26.084Z,2.94
2023-03-22T12:22:26.073Z,2.77
2023-03-22T12:23:26.023Z,2.88
2023-03-22T12:24:26.008Z,3.84
2023-03-22T12:25:26.004Z,3.40
2023-03-22T12:26:26.016Z,2.90
2023-03-22T12:27:25.971Z,3.17
2023-03-22T12:28:25.973Z,3.71
2023-03-22T12:29:25.930Z,2.85
2023-03-22T12:30:25.906Z,2.71
2023-03-22T12:31:25.958Z,2.79
2023-03-22T12:32:26.009Z,2.57
2023-03-22T12:33:25.884Z,2.84
2023-03-22T12:34:25.877Z,2.55
2023-03-22T12:35:25.832Z,2.67
2023-03-22T12:36:25.824Z,2.62
2023-03-22T12:37:25.789Z,3.58
2023-03-22T12:38:25.779Z,2.73
2023-03-22T12:39:25.759Z,2.71
2023-03-22T12:40:25.755Z,2.79
2023-03-22T12:41:25.722Z,2.37
2023-03-22T12:42:25.718Z,2.98
2023-03-22T12:43:25.792Z,2.85
2023-03-22T12:44:25.687Z,2.99
2023-03-22T12:45:25.657Z,3.42
2023-03-22T12:46:25.656Z,2.20
2023-03-22T12:47:25.674Z,2.90
2023-03-22T12:48:25.789Z,2.89
2023-03-22T12:49:25.584Z,3.01
2023-03-22T12:50:25.595Z,2.43
2023-03-22T12:51:25.564Z,3.37
2023-03-22T12:52:29.726Z,3.14
2023-03-22T12:53:26.611Z,2.70
2023-03-22T12:54:25.560Z,2.66
2023-03-22T12:55:25.514Z,2.97
2023-03-22T12:56:25.515Z,2.71
2023-03-22T12:57:25.466Z,3.34
2023-03-22T12:58:25.471Z,2.87
2023-03-22T12:59:25.448Z,2.62
2023-03-22T13:00:25.417Z,2.91
2023-03-22T13:01:25.426Z,3.37
2023-03-22T13:02:25.388Z,2.78
2023-03-22T13:03:25.524Z,2.39
2023-03-22T13:04:25.341Z,3.37
2023-03-22T13:05:25.313Z,2.69
2023-03-22T13:06:25.293Z,2.49
2023-03-22T13:07:25.283Z,2.85
2023-03-22T13:08:25.267Z,3.20
2023-03-22T13:09:25.288Z,2.92
2023-03-22T13:10:25.228Z,3.10
2023-03-22T13:11:25.242Z,2.70
2023-03-22T13:12:25.210Z,2.55
2023-03-22T13:13:25.291Z,2.98
2023-03-22T13:14:25.193Z,2.61
2023-03-22T13:15:31.585Z,2.98
2023-03-22T13:16:26.151Z,2.88
2023-03-22T13:17:25.560Z,2.40
2023-03-22T13:18:25.078Z,2.74
2023-03-22T13:19:25.065Z,2.65
2023-03-22T13:20:25.072Z,2.50
2023-03-22T13:21:25.021Z,2.88
2023-03-22T13:22:25.038Z,2.26
2023-03-22T13:23:24.992Z,2.81
2023-03-22T13:24:24.979Z,2.28
2023-03-22T13:25:24.956Z,2.36
2023-03-22T13:26:24.936Z,3.00
2023-03-22T13:27:24.931Z,2.79
2023-03-22T13:28:24.890Z,3.32
2023-03-22T13:29:24.903Z,2.29
2023-03-22T13:30:24.858Z,2.32
2023-03-22T13:31:24.841Z,2.78
2023-03-22T13:32:24.844Z,2.47
2023-03-22T13:33:24.789Z,2.65
2023-03-22T13:34:24.787Z,2.55
2023-03-22T13:35:24.761Z,2.72
2023-03-22T13:36:24.696Z,2.68
2023-03-22T13:37:24.684Z,2.26
2023-03-22T13:38:24.722Z,2.92
2023-03-22T13:39:24.635Z,2.63
2023-03-22T13:40:24.606Z,2.47
2023-03-22T13:41:24.589Z,2.25
2023-03-22T13:42:24.566Z,2.18
2023-03-22T13:43:24.544Z,2.37
2023-03-22T13:44:24.522Z,2.63